Monday, July 28, 2014, 4:15 AM EDT

KOKV, Winchester Regional

Location: Winchester, VA, United States Lat: 39.15
Local Time: 4:15 AM EDT ( 8:15 GMT) Lon: -78.15
Time Zone: US/Eastern Elev: 728 ft

Show me the last for .
Show Decoded

2014-07-28 03:35 METAR KOKV 280735Z AUTO 18003KT 10SM SCT050 SCT075 SCT100 20/18 A2962 RMK AO2 =
2014-07-28 03:15 METAR KOKV 280715Z AUTO 28004KT 10SM CLR 20/18 A2964 RMK AO2 =
2014-07-28 02:55 METAR KOKV 280655Z AUTO 00000KT 10SM CLR 19/18 A2964 RMK AO2 =
2014-07-28 02:35 METAR KOKV 280635Z AUTO 21003KT 10SM CLR 20/18 A2963 RMK AO2 =
2014-07-28 02:15 METAR KOKV 280615Z AUTO 22004KT 10SM CLR 19/18 A2964 RMK AO2 =
2014-07-28 01:55 METAR KOKV 280555Z AUTO 21004KT 10SM CLR 20/18 A2964 RMK AO2 =
2014-07-28 01:35 METAR KOKV 280535Z AUTO 00000KT 10SM CLR 19/18 A2965 RMK AO2 =
2014-07-28 01:15 METAR KOKV 280515Z AUTO 00000KT 10SM CLR 20/18 A2965 RMK AO2 =
2014-07-28 00:55 METAR KOKV 280455Z AUTO 22003KT 10SM CLR 20/17 A2964 RMK AO2 =
2014-07-28 00:35 METAR KOKV 280435Z AUTO 24005KT 10SM CLR 20/17 A2965 RMK AO2 =
2014-07-28 00:15 METAR KOKV 280415Z AUTO 25005KT 10SM CLR 20/17 A2967 RMK AO2 LTG DSNT N AND S =
2014-07-27 23:55 METAR KOKV 280355Z AUTO 26009KT 10SM SCT110 21/18 A2967 RMK AO2 P0007 =
2014-07-27 23:35 METAR KOKV 280335Z AUTO 18007KT 150V220 7SM RA SCT046 SCT065 OVC110 21/19 A2964
                 RMK AO2 LTG DSNT S P0007 =
2014-07-27 23:15 METAR KOKV 280315Z AUTO 22013G20KT 7SM RA SCT080 OVC110 23/20 A2969 RMK AO2 LTG
                 DSNT ALQS P0004 =
2014-07-27 22:55 METAR KOKV 280255Z AUTO 23012G17KT 7SM RA OVC110 23/21 A2970 RMK AO2 LTG DSNT SW
                 THRU NE P0007 =
2014-07-27 22:35 METAR KOKV 280235Z AUTO 23006KT 7SM VCTSRA SCT050 SCT090 BKN120 23/21 A2971 RMK
                 AO2 LTG DSNT ALQS P0002 =
2014-07-27 22:15 METAR KOKV 280215Z AUTO 28008KT 10SM -VCTSRA SCT055 SCT075 SCT120 23/20 A2970
                 RMK AO2 LTG DSNT ALQS =
2014-07-27 21:55 METAR KOKV 280155Z AUTO 24005KT 10SM VCTS SCT075 SCT090 24/20 A2968 RMK AO2 LTG
                 DSNT SW THRU N =
2014-07-27 21:35 METAR KOKV 280135Z AUTO 23006KT 10SM SCT075 SCT090 25/21 A2969 RMK AO2 LTG DSNT
                 W AND NW =
2014-07-27 21:15 METAR KOKV 280115Z AUTO 23010KT 10SM VCTS SCT075 SCT110 25/21 A2968 RMK AO2 LTG
                 DSNT W THRU NE =
2014-07-27 20:55 METAR KOKV 280055Z AUTO 19006KT 10SM -RA BKN075 BKN090 BKN110 25/21 A2968 RMK
                 AO2 LTG DSNT SW AND W =
2014-07-27 20:35 METAR KOKV 280035Z AUTO 20003KT 10SM OVC085 25/20 A2969 RMK AO2 LTG DSNT NE AND
                 W =
2014-07-27 20:15 METAR KOKV 280015Z AUTO 18004KT 10SM SCT085 26/21 A2970 RMK AO2 LTG DSNT W =
2014-07-27 19:55 METAR KOKV 272355Z AUTO 17003KT 10SM CLR 26/21 A2970 RMK AO2 LTG DSNT NE AND NW
                 =
2014-07-27 19:35 METAR KOKV 272335Z AUTO 18003KT 10SM SCT055 SCT080 26/21 A2970 RMK AO2 LTG DSNT
                 N =
2014-07-27 19:15 METAR KOKV 272315Z AUTO 20003KT 10SM SCT055 BKN080 26/21 A2972 RMK AO2 LTG DSNT
                 NE =
2014-07-27 18:55 METAR KOKV 272255Z AUTO 21005KT 10SM SCT049 SCT055 SCT080 26/21 A2971 RMK AO2 =
2014-07-27 18:35 METAR KOKV 272235Z AUTO 21005KT 10SM CLR 27/21 A2971 RMK AO2 =
2014-07-27 18:15 METAR KOKV 272215Z AUTO 19006KT 10SM CLR 27/21 A2971 RMK AO2 =
2014-07-27 17:55 METAR KOKV 272155Z AUTO 21009KT 10SM CLR 27/21 A2972 RMK AO2 LTG DSNT N AND SE =
2014-07-27 17:35 METAR KOKV 272135Z AUTO 23008KT 10SM SCT090 27/22 A2974 RMK AO2 =
2014-07-27 17:15 METAR KOKV 272115Z AUTO 21007KT 10SM BKN090 27/22 A2974 RMK AO2 LTG DSNT NW =
2014-07-27 16:35 METAR KOKV 272035Z AUTO 19005KT 10SM -DZ SCT028 SCT036 OVC100 26/21 A2976 RMK
                 AO2 LTG DSNT NW =
2014-07-27 16:15 METAR KOKV 272015Z AUTO 19003KT 10SM -DZ SCT040 BKN100 OVC120 26/21 A2976 RMK
                 AO2 =
2014-07-27 15:55 METAR KOKV 271955Z AUTO 22004KT 10SM RA SCT090 BKN110 26/20 A2977 RMK AO2 =
2014-07-27 15:35 METAR KOKV 271935Z AUTO 22007KT 10SM SCT110 27/20 A2978 RMK AO2 =
2014-07-27 15:15 METAR KOKV 271915Z AUTO 23009KT 10SM SCT110 27/20 A2979 RMK AO2 =
2014-07-27 14:55 METAR KOKV 271855Z AUTO 22008G14KT 10SM CLR 27/20 A2979 RMK AO2 =
2014-07-27 14:35 METAR KOKV 271835Z AUTO 22010G16KT 10SM CLR 27/20 A2980 RMK AO2 =
2014-07-27 14:15 METAR KOKV 271815Z AUTO 22010G16KT 10SM CLR 27/20 A2981 RMK AO2 =
2014-07-27 13:55 METAR KOKV 271755Z AUTO 22010G18KT 10SM CLR 27/20 A2981 RMK AO2 =
2014-07-27 13:35 METAR KOKV 271735Z AUTO 22007KT 10SM CLR 26/20 A2982 RMK AO2 =
2014-07-27 13:15 METAR KOKV 271715Z AUTO 23008KT 10SM CLR 26/20 A2983 RMK AO2 =
2014-07-27 11:50 METAR KOKV 271550Z AUTO 24010G14KT 10SM CLR 25/20 A2983 RMK AO2 =
2014-07-27 11:35 METAR KOKV 271535Z AUTO 25010KT 10SM CLR 26/20 A2983 RMK AO2 =
2014-07-27 11:15 METAR KOKV 271515Z AUTO 24009KT 10SM CLR 26/20 A2983 RMK AO2 =
2014-07-27 10:55 METAR KOKV 271455Z AUTO 24010KT 10SM CLR 25/20 A2983 RMK AO2 LTG DSNT W =
2014-07-27 10:35 METAR KOKV 271435Z AUTO 24010G16KT 10SM CLR 23/20 A2983 RMK AO2 =
2014-07-27 10:15 METAR KOKV 271415Z AUTO 23010KT 10SM CLR 23/20 A2983 RMK AO2 =
2014-07-27 09:55 METAR KOKV 271355Z AUTO 22011KT 10SM CLR 22/19 A2983 RMK AO2 =
2014-07-27 09:35 METAR KOKV 271335Z AUTO 22008KT 10SM CLR 21/19 A2984 RMK AO2 =
2014-07-27 09:15 METAR KOKV 271315Z AUTO 22008KT 10SM CLR 21/19 A2985 RMK AO2 =
2014-07-27 08:55 METAR KOKV 271255Z AUTO 23011G15KT 10SM CLR 21/18 A2986 RMK AO2 =
2014-07-27 08:35 METAR KOKV 271235Z AUTO 23009G15KT 10SM CLR 21/18 A2987 RMK AO2 =
2014-07-27 08:15 METAR KOKV 271215Z AUTO 23010G15KT 10SM SCT060 21/18 A2987 RMK AO2 LTG DSNT NE
                 AND S =
2014-07-27 07:55 METAR KOKV 271155Z AUTO 22012G16KT 10SM BKN060 BKN070 21/18 A2987 RMK AO2 LTG
                 DSNT S =
2014-07-27 07:35 METAR KOKV 271135Z AUTO 24011G19KT 10SM BKN060 20/18 A2988 RMK AO2 =
2014-07-27 07:15 METAR KOKV 271115Z AUTO 23007KT 10SM CLR 20/18 A2987 RMK AO2 =
2014-07-27 06:55 METAR KOKV 271055Z AUTO 24011G15KT 10SM BKN085 BKN110 20/19 A2985 RMK AO2 LTG
                 DSNT W =
2014-07-27 06:35 METAR KOKV 271035Z AUTO 24012G16KT 10SM BKN095 20/19 A2985 RMK AO2 =
2014-07-27 06:15 METAR KOKV 271015Z AUTO 23009G14KT 10SM SCT095 20/19 A2984 RMK AO2 LTG DSNT S =
2014-07-27 05:55 METAR KOKV 270955Z AUTO 24008KT 10SM -RA SCT090 SCT120 20/19 A2984 RMK AO2 P0007
                 =
2014-07-27 05:35 METAR KOKV 270935Z AUTO 22006KT 7SM -RA SCT090 BKN110 20/19 A2985 RMK AO2 LTG
                 DSNT S P0007 =
2014-07-27 05:15 METAR KOKV 270915Z AUTO 22010G15KT 7SM RA OVC120 21/20 A2987 RMK AO2 LTG DSNT S
                 AND SW P0004 =
2014-07-27 04:55 METAR KOKV 270855Z AUTO 22009KT 7SM RA OVC120 20/19 A2988 RMK AO2 LTG DSNT S AND
                 SW P0010 =
2014-07-27 04:35 METAR KOKV 270835Z AUTO 25009KT 7SM RA BKN120 21/19 A2989 RMK AO2 LTG DSNT W
                 P0005 =

Support USWX by starting your Amazon purchase here.